PWSweather.com
Personal Weather Stations
Station Observations

CefaluIT

Lat: 38.0324, Lon: 14.02837

Elevation: 92

Station Type: LACROSSE WS 2350

http://www.meteocefalu.altervista.org

Latest ConditionsUpdated 6:00:08 PM GMT+01:01 Sunday, Sep 23, 2018
Currently Today's Max Today's Min Today's Average
Temperature 76.3°F24.6°C 79.9°F26.6°C 76.3°F24.6°C 78.1°F25.6°C
Dew Point 68.9°F20.5°C 71.1°F21.7°C 68.9°F20.5°C 70.1°F21.2°C
Winds Calm Calm 6.9 mph -11.1 kmh - - 3.2 mph 5.1 kmh
Wind Gusts -- 6.9 mph11.1 kmh - -
Humidity 78% 80% 74% 76%
Pressure 29.99 in1015.6 mb 30.05 in1017.6 mb 29.98 in1015.2 mb -
Hour Temp Dew Point Humidity Winds Wind Gusts Pressure Precip Precip Rate Daily Precip Total
06:00 PM 76.3°F24.6°C 68.9°F20.5°C 78% Calm Calm -- 29.99 in1015.6 mb - 0.00 in0.0 mm 0.00 in0.0 mm
05:50 PM 76.5°F24.7°C 69.1°F20.6°C 78% 0.6 mph E1.0 kmh E 0.7 mph1.1 kmh 29.99 in1015.6 mb - 0.00 in0.0 mm 0.00 in0.0 mm
05:40 PM 76.6°F24.8°C 68.9°F20.5°C 77% 2.2 mph ENE3.5 kmh ENE 1.8 mph2.9 kmh 29.98 in1015.2 mb - 0.00 in0.0 mm 0.00 in0.0 mm
05:30 PM 77.4°F25.2°C 69.6°F20.9°C 77% 1.9 mph E3.1 kmh E 3.1 mph5.0 kmh 29.98 in1015.2 mb - 0.00 in0.0 mm 0.00 in0.0 mm
05:20 PM 77.4°F25.2°C 69.6°F20.9°C 77% 0.2 mph ENE0.3 kmh ENE 1.3 mph2.1 kmh 29.98 in1015.2 mb - 0.00 in0.0 mm 0.00 in0.0 mm
05:10 PM 77.5°F25.3°C 69.8°F21.0°C 77% 2.2 mph ENE3.5 kmh ENE 2.5 mph4.0 kmh 29.98 in1015.2 mb - 0.00 in0.0 mm 0.00 in0.0 mm
05:00 PM 77.7°F25.4°C 69.5°F20.8°C 76% 3.6 mph ENE5.8 kmh ENE 3.6 mph5.8 kmh 29.98 in1015.2 mb - 0.00 in0.0 mm 0.00 in0.0 mm
04:50 PM 78.1°F25.6°C 69.9°F21.1°C 76% 3.7 mph ENE6.0 kmh ENE 3.8 mph6.1 kmh 29.98 in1015.2 mb - 0.00 in0.0 mm 0.00 in0.0 mm
04:40 PM 78.1°F25.6°C 69.9°F21.1°C 76% 2.4 mph NE3.9 kmh NE 2.7 mph4.3 kmh 29.98 in1015.2 mb - 0.00 in0.0 mm 0.00 in0.0 mm
04:30 PM 78.1°F25.6°C 69.5°F20.8°C 75% 3.1 mph ENE5.0 kmh ENE 2.9 mph4.7 kmh 29.98 in1015.2 mb - 0.00 in0.0 mm 0.00 in0.0 mm
04:20 PM 78.1°F25.6°C 69.5°F20.8°C 75% 4.9 mph ENE7.9 kmh ENE 5.1 mph8.2 kmh 29.98 in1015.2 mb - 0.00 in0.0 mm 0.00 in0.0 mm
04:10 PM 78.4°F25.8°C 69.9°F21.1°C 75% 4.0 mph ENE6.4 kmh ENE 3.8 mph6.1 kmh 29.99 in1015.6 mb - 0.00 in0.0 mm 0.00 in0.0 mm
04:00 PM 78.4°F25.8°C 69.9°F21.1°C 75% 3.6 mph E5.8 kmh E 3.6 mph5.8 kmh 29.99 in1015.6 mb - 0.00 in0.0 mm 0.00 in0.0 mm
03:50 PM 78.5°F25.8°C 69.9°F21.1°C 75% 4.8 mph ENE7.7 kmh ENE 4.9 mph7.9 kmh 29.99 in1015.6 mb - 0.00 in0.0 mm 0.00 in0.0 mm
03:40 PM 78.6°F25.9°C 70.0°F21.1°C 75% 4.9 mph E7.9 kmh E 4.5 mph7.2 kmh 29.98 in1015.2 mb - 0.00 in0.0 mm 0.00 in0.0 mm
03:30 PM 78.6°F25.9°C 70.0°F21.1°C 75% 2.5 mph ENE4.0 kmh ENE 2.5 mph4.0 kmh 29.99 in1015.6 mb - 0.00 in0.0 mm 0.00 in0.0 mm
03:20 PM 78.6°F25.9°C 70.0°F21.1°C 75% 4.2 mph NE6.8 kmh NE 4.2 mph6.8 kmh 29.99 in1015.6 mb - 0.00 in0.0 mm 0.00 in0.0 mm
03:10 PM 78.9°F26.1°C 70.3°F21.3°C 75% 3.8 mph NE6.1 kmh NE 5.4 mph8.7 kmh 29.99 in1015.6 mb - 0.00 in0.0 mm 0.00 in0.0 mm
03:00 PM 79.0°F26.1°C 70.0°F21.1°C 74% 2.5 mph NE4.0 kmh NE 2.5 mph4.0 kmh 29.99 in1015.6 mb - 0.00 in0.0 mm 0.00 in0.0 mm
02:50 PM 79.3°F26.3°C 70.3°F21.3°C 74% 3.0 mph NE4.8 kmh NE 3.1 mph5.0 kmh 29.99 in1015.6 mb - 0.00 in0.0 mm 0.00 in0.0 mm
02:40 PM 79.5°F26.4°C 70.5°F21.4°C 74% 3.1 mph ENE5.0 kmh ENE 3.1 mph5.0 kmh 30.00 in1015.9 mb - 0.00 in0.0 mm 0.00 in0.0 mm
02:30 PM 79.3°F26.3°C 70.3°F21.3°C 74% 3.8 mph NNE6.1 kmh NNE 3.8 mph6.1 kmh 30.00 in1015.9 mb - 0.00 in0.0 mm 0.00 in0.0 mm
02:21 PM 79.5°F26.4°C 70.5°F21.4°C 74% 3.8 mph NE6.1 kmh NE 3.8 mph6.1 kmh 30.00 in1015.9 mb - 0.00 in0.0 mm 0.00 in0.0 mm
02:10 PM 79.9°F26.6°C 70.8°F21.6°C 74% 3.0 mph ESE4.8 kmh ESE 2.7 mph4.3 kmh 30.01 in1016.3 mb - 0.00 in0.0 mm 0.00 in0.0 mm
02:00 PM 79.7°F26.5°C 70.7°F21.5°C 74% 2.2 mph ENE3.5 kmh ENE 2.2 mph3.5 kmh 30.01 in1016.3 mb - 0.00 in0.0 mm 0.00 in0.0 mm
01:50 PM 79.6°F26.4°C 71.0°F21.7°C 75% 1.8 mph E2.9 kmh E 1.8 mph2.9 kmh 30.01 in1016.3 mb - 0.00 in0.0 mm 0.00 in0.0 mm
01:40 PM 79.0°F26.1°C 70.4°F21.3°C 75% 2.8 mph NNE4.5 kmh NNE 2.5 mph4.0 kmh 30.02 in1016.6 mb - 0.00 in0.0 mm 0.00 in0.0 mm
01:30 PM 79.3°F26.3°C 70.3°F21.3°C 74% 3.1 mph NE5.0 kmh NE 3.1 mph5.0 kmh 30.02 in1016.6 mb - 0.00 in0.0 mm 0.00 in0.0 mm
01:20 PM 79.7°F26.5°C 70.7°F21.5°C 74% 1.6 mph E2.6 kmh E 3.6 mph5.8 kmh 30.02 in1016.6 mb - 0.00 in0.0 mm 0.00 in0.0 mm
01:10 PM 79.2°F26.2°C 70.5°F21.4°C 75% 3.2 mph ENE5.1 kmh ENE 3.8 mph6.1 kmh 30.02 in1016.6 mb - 0.00 in0.0 mm 0.00 in0.0 mm
01:00 PM 79.0°F26.1°C 70.4°F21.3°C 75% 3.3 mph NE5.3 kmh NE 3.4 mph5.5 kmh 30.02 in1016.6 mb - 0.00 in0.0 mm 0.00 in0.0 mm
12:50 PM 79.4°F26.3°C 70.4°F21.3°C 74% 5.6 mph NE9.0 kmh NE 6.0 mph9.7 kmh 30.03 in1016.9 mb - 0.00 in0.0 mm 0.00 in0.0 mm
12:40 PM 79.3°F26.3°C 70.7°F21.5°C 75% 3.7 mph ENE6.0 kmh ENE 4.2 mph6.8 kmh 30.02 in1016.6 mb - 0.00 in0.0 mm 0.00 in0.0 mm
12:30 PM 79.3°F26.3°C 71.1°F21.7°C 76% 5.6 mph ENE9.0 kmh ENE 5.8 mph9.3 kmh 30.03 in1016.9 mb - 0.00 in0.0 mm 0.00 in0.0 mm
12:20 PM 77.7°F25.4°C 69.6°F20.9°C 76% 6.9 mph NE11.1 kmh NE 6.9 mph11.1 kmh 30.03 in1016.9 mb - 0.00 in0.0 mm 0.00 in0.0 mm
12:10 PM 78.1°F25.6°C 69.9°F21.1°C 76% 2.7 mph ENE4.3 kmh ENE 3.6 mph5.8 kmh 30.03 in1016.9 mb - 0.00 in0.0 mm 0.00 in0.0 mm
12:00 PM 78.1°F25.6°C 70.3°F21.3°C 77% 3.5 mph ENE5.6 kmh ENE 3.4 mph5.5 kmh 30.04 in1017.3 mb - 0.00 in0.0 mm 0.00 in0.0 mm
11:50 AM 78.2°F25.7°C 70.4°F21.3°C 77% 0.9 mph ENE1.4 kmh ENE 2.7 mph4.3 kmh 30.04 in1017.3 mb - 0.00 in0.0 mm 0.00 in0.0 mm
11:40 AM 78.4°F25.8°C 70.6°F21.4°C 77% 5.2 mph NNE8.4 kmh NNE 2.5 mph4.0 kmh 30.04 in1017.3 mb - 0.00 in0.0 mm 0.00 in0.0 mm
11:30 AM 77.9°F25.5°C 70.1°F21.2°C 77% 3.1 mph 5.0 kmh 2.5 mph4.0 kmh 30.04 in1017.3 mb - 0.00 in0.0 mm 0.00 in0.0 mm
11:20 AM 77.5°F25.3°C 69.8°F21.0°C 77% 1.8 mph NE2.9 kmh NE 1.8 mph2.9 kmh 30.04 in1017.3 mb - 0.00 in0.0 mm 0.00 in0.0 mm
11:10 AM 77.6°F25.3°C 69.8°F21.0°C 77% 3.8 mph ENE6.1 kmh ENE 5.1 mph8.2 kmh 30.05 in1017.6 mb - 0.00 in0.0 mm 0.00 in0.0 mm
11:00 AM 77.5°F25.3°C 70.1°F21.2°C 78% 3.7 mph NE6.0 kmh NE 3.6 mph5.8 kmh 30.05 in1017.6 mb - 0.00 in0.0 mm 0.00 in0.0 mm
10:50 AM 77.0°F25.0°C 70.0°F21.1°C 79% 4.8 mph NE7.7 kmh NE 5.1 mph8.2 kmh 30.04 in1017.3 mb - 0.00 in0.0 mm 0.00 in0.0 mm
10:40 AM 76.8°F24.9°C 69.8°F21.0°C 79% 3.6 mph ENE5.8 kmh ENE 4.9 mph7.9 kmh 30.05 in1017.6 mb - 0.00 in0.0 mm 0.00 in0.0 mm
10:30 AM 76.8°F24.9°C 69.8°F21.0°C 79% 6.0 mph ENE9.7 kmh ENE 6.0 mph9.7 kmh 30.05 in1017.6 mb - 0.00 in0.0 mm 0.00 in0.0 mm
10:20 AM 77.0°F25.0°C 70.0°F21.1°C 79% 3.6 mph NE5.8 kmh NE 3.6 mph5.8 kmh 30.05 in1017.6 mb - 0.00 in0.0 mm 0.00 in0.0 mm
10:10 AM 77.2°F25.1°C 70.2°F21.2°C 79% 5.0 mph ENE8.0 kmh ENE 5.4 mph8.7 kmh 30.04 in1017.3 mb - 0.00 in0.0 mm 0.00 in0.0 mm
10:00 AM 77.0°F25.0°C 70.0°F21.1°C 79% 2.2 mph NNE3.5 kmh NNE 2.0 mph3.2 kmh 30.04 in1017.3 mb - 0.00 in0.0 mm 0.00 in0.0 mm
09:50 AM 76.8°F24.9°C 69.8°F21.0°C 79% 4.0 mph NE6.4 kmh NE 4.0 mph6.4 kmh 30.04 in1017.3 mb - 0.00 in0.0 mm 0.00 in0.0 mm
09:40 AM 77.0°F25.0°C 70.0°F21.1°C 79% 4.5 mph NE7.2 kmh NE 4.5 mph7.2 kmh 30.04 in1017.3 mb - 0.00 in0.0 mm 0.00 in0.0 mm
09:30 AM 77.7°F25.4°C 70.3°F21.3°C 78% 3.8 mph ENE6.1 kmh ENE 3.8 mph6.1 kmh 30.04 in1017.3 mb - 0.00 in0.0 mm 0.00 in0.0 mm
09:20 AM 77.7°F25.4°C 70.3°F21.3°C 78% 3.4 mph NE5.5 kmh NE 3.4 mph5.5 kmh 30.03 in1016.9 mb - 0.00 in0.0 mm 0.00 in0.0 mm
09:10 AM 77.7°F25.4°C 70.3°F21.3°C 78% 2.4 mph ENE3.9 kmh ENE 2.5 mph4.0 kmh 30.03 in1016.9 mb - 0.00 in0.0 mm 0.00 in0.0 mm
09:00 AM 77.5°F25.3°C 70.5°F21.4°C 79% 1.8 mph ENE2.9 kmh ENE 2.0 mph3.2 kmh 30.03 in1016.9 mb - 0.00 in0.0 mm 0.00 in0.0 mm
08:50 AM 77.0°F25.0°C 70.4°F21.3°C 80% 1.6 mph ENE2.6 kmh ENE 3.6 mph5.8 kmh 30.03 in1016.9 mb - 0.00 in0.0 mm 0.00 in0.0 mm
08:40 AM 76.6°F24.8°C 70.0°F21.1°C 80% 1.7 mph NE2.7 kmh NE 2.5 mph4.0 kmh 30.03 in1016.9 mb - 0.00 in0.0 mm 0.00 in0.0 mm